Main page
METAR-TAF:

METAR-TAF

Airports :

Tripoli, Libya

Mitiga International Airport

latitude: 32-54N, longitude: 13-17E, elevation: 11 m

Current weather observation

The report was made 18 minutes ago, at 15:50 UTC
Wind 13 kt from the East
Temperature 24°C
Humidity 47%
Pressure 1014 hPa
Visibility: 7000 m

METAR: HLLM 251550Z 10013KT 7000 NSC 24/12 Q1014

Time: 18:08 (16:08 UTC)

Forecast

The report was made 11 hours and 8 minutes ago, at 05:00 UTC
Forecast valid from 25 at 06 UTC to 26 at 06 UTC
Wind 10 kt from the East/Southeast
Visibility: 8000 m
Becoming
from 25 at 15 UTC to 25 at 17 UTC
Wind 12 kt from the East/Northeast

TAF: HLLM 250500Z 2506/2606 12010KT 8000 NSC BECMG 2515/2517 06012KT

Weather observations and forecasts of more than 4000 airports (METAR and TAF reports).

The available stations are represented by yellow and red dots on the map.

Hover mouse over dot to see the name of the station.

Then click to see weather observations and forecasts.

To change the map : click on the green buttons with a black cross to zoom in, on the green button with a dash to zoom out, or on the green arrows for adjacent maps.


METAR-TAF: